createdAt,value
2018-06-10T00:01:51.497Z,10.23
2018-06-10T00:04:19.616Z,10.50
2018-06-10T00:06:47.721Z,10.53
2018-06-10T00:09:15.823Z,10.10
2018-06-10T00:11:43.908Z,9.57
2018-06-10T00:14:12.024Z,10.50
2018-06-10T00:16:40.125Z,11.07
2018-06-10T00:19:08.237Z,9.83
2018-06-10T00:21:36.327Z,10.30
2018-06-10T00:24:04.436Z,11.50
2018-06-10T00:26:32.523Z,9.57
2018-06-10T00:29:05.972Z,10.03
2018-06-10T00:31:34.064Z,11.20
2018-06-10T00:34:02.168Z,10.80
2018-06-10T00:36:30.247Z,9.30
2018-06-10T00:38:58.348Z,10.47
2018-06-10T00:41:26.424Z,9.37
2018-06-10T00:43:54.530Z,9.00
2018-06-10T00:46:22.609Z,8.13
2018-06-10T00:48:50.725Z,8.23
2018-06-10T00:51:18.824Z,9.23
2018-06-10T00:53:46.915Z,9.10
2018-06-10T00:56:20.549Z,8.67
2018-06-10T00:58:48.643Z,8.47
2018-06-10T01:01:16.725Z,9.20
2018-06-10T01:03:44.828Z,10.93
2018-06-10T01:06:12.916Z,10.97
2018-06-10T01:08:41.021Z,12.57
2018-06-10T01:11:09.117Z,12.03
2018-06-10T01:13:37.201Z,13.00
2018-06-10T01:16:05.299Z,11.40
2018-06-10T01:18:33.478Z,11.27
2018-06-10T01:21:01.580Z,11.40
2018-06-10T01:23:29.664Z,11.20
2018-06-10T01:25:57.763Z,11.80
2018-06-10T01:28:28.764Z,11.17
2018-06-10T01:30:57.567Z,9.80
2018-06-10T01:33:25.719Z,10.80
2018-06-10T01:35:53.827Z,10.00
2018-06-10T01:38:21.897Z,10.47
2018-06-10T01:40:49.988Z,10.90
2018-06-10T01:43:18.060Z,10.90
2018-06-10T01:45:46.147Z,8.87
2018-06-10T01:48:14.231Z,10.07
2018-06-10T01:50:42.359Z,11.20
2018-06-10T01:53:10.456Z,10.30
2018-06-10T01:55:38.561Z,9.60
2018-06-10T01:58:06.647Z,10.17
2018-06-10T02:00:34.752Z,10.83
2018-06-10T02:03:02.860Z,9.93
2018-06-10T02:05:30.970Z,10.50
2018-06-10T02:07:59.060Z,9.80
2018-06-10T02:10:27.184Z,9.87
2018-06-10T02:12:55.263Z,9.23
2018-06-10T02:15:23.366Z,9.83
2018-06-10T02:17:51.460Z,10.30
2018-06-10T02:20:19.559Z,9.20
2018-06-10T02:22:47.648Z,9.93
2018-06-10T02:25:15.782Z,9.77
2018-06-10T02:27:43.876Z,10.37
2018-06-10T02:30:11.984Z,10.83
2018-06-10T02:32:40.077Z,10.57
2018-06-10T02:35:08.177Z,10.93
2018-06-10T02:37:36.271Z,10.03
2018-06-10T02:40:04.381Z,11.27
2018-06-10T02:42:32.476Z,11.13
2018-06-10T02:45:00.607Z,12.03
2018-06-10T02:47:28.696Z,12.17
2018-06-10T02:49:56.795Z,12.40
2018-06-10T02:52:24.911Z,12.47
2018-06-10T02:54:52.992Z,12.93
2018-06-10T02:57:21.092Z,11.83
2018-06-10T02:59:49.278Z,10.63
2018-06-10T03:02:17.381Z,11.87
2018-06-10T03:04:45.455Z,11.53
2018-06-10T03:07:13.548Z,10.53
2018-06-10T03:09:41.637Z,11.97
2018-06-10T03:12:09.741Z,12.20
2018-06-10T03:14:37.843Z,11.37
2018-06-10T03:17:05.940Z,11.93
2018-06-10T03:19:34.025Z,12.00
2018-06-10T03:22:02.132Z,11.40
2018-06-10T03:24:30.216Z,12.07
2018-06-10T03:26:58.332Z,11.20
2018-06-10T03:29:26.416Z,11.00
2018-06-10T03:31:54.522Z,11.17
2018-06-10T03:34:22.679Z,11.80
2018-06-10T03:36:50.797Z,12.60
2018-06-10T03:39:18.875Z,12.47
2018-06-10T03:41:46.959Z,12.50
2018-06-10T03:44:15.052Z,11.30
2018-06-10T03:46:43.136Z,12.40
2018-06-10T03:49:11.264Z,12.40
2018-06-10T03:51:39.359Z,11.77
2018-06-10T03:54:07.460Z,10.77
2018-06-10T03:56:35.560Z,12.73
2018-06-10T03:59:03.663Z,11.27
2018-06-10T04:01:31.748Z,11.60
2018-06-10T04:03:59.996Z,11.27
2018-06-10T04:06:28.096Z,10.50
2018-06-10T04:08:56.200Z,11.47
2018-06-10T04:11:24.284Z,10.57
2018-06-10T04:13:52.383Z,10.40
2018-06-10T04:16:20.469Z,9.60
2018-06-10T04:18:48.580Z,8.80
2018-06-10T04:21:16.672Z,7.47
2018-06-10T04:23:44.768Z,7.63
2018-06-10T04:26:12.847Z,7.87
2018-06-10T04:28:40.947Z,8.97
2018-06-10T04:31:09.032Z,8.23
2018-06-10T04:33:37.141Z,8.70
2018-06-10T04:36:05.220Z,8.83
2018-06-10T04:38:33.332Z,9.70
2018-06-10T04:41:01.417Z,8.80
2018-06-10T04:43:29.501Z,9.37
2018-06-10T04:45:57.611Z,8.40
2018-06-10T04:48:25.727Z,9.07
2018-06-10T04:50:53.841Z,9.20
2018-06-10T04:53:21.924Z,9.03
2018-06-10T04:55:50.048Z,8.90
2018-06-10T04:58:18.131Z,8.80
2018-06-10T05:00:46.219Z,9.30
2018-06-10T05:03:14.292Z,8.80
2018-06-10T05:05:42.388Z,8.47
2018-06-10T05:08:10.462Z,8.60
2018-06-10T05:10:38.585Z,8.80
2018-06-10T05:13:06.664Z,8.90
2018-06-10T05:15:34.764Z,9.70
2018-06-10T05:18:02.865Z,8.33
2018-06-10T05:20:30.958Z,8.47
2018-06-10T05:22:59.145Z,9.33
2018-06-10T05:25:27.244Z,8.40
2018-06-10T05:27:55.325Z,8.30
2018-06-10T05:30:23.424Z,8.93
2018-06-10T05:32:51.509Z,8.63
2018-06-10T05:35:19.603Z,8.60
2018-06-10T05:37:47.677Z,7.73
2018-06-10T05:40:15.772Z,7.57
2018-06-10T05:42:43.852Z,6.93
2018-06-10T05:45:11.953Z,8.00
2018-06-10T05:47:40.033Z,6.80
2018-06-10T05:50:08.283Z,6.70
2018-06-10T05:52:36.384Z,7.40
2018-06-10T05:55:04.477Z,7.33
2018-06-10T05:57:32.575Z,6.90
2018-06-10T06:00:00.655Z,7.00
2018-06-10T06:02:28.780Z,6.90
2018-06-10T06:04:56.862Z,6.80
2018-06-10T06:07:24.976Z,7.00
2018-06-10T06:09:53.063Z,7.50
2018-06-10T06:12:21.170Z,9.10
2018-06-10T06:14:49.264Z,7.10
2018-06-10T06:17:17.382Z,7.10
2018-06-10T06:19:45.468Z,6.53
2018-06-10T06:22:13.568Z,6.90
2018-06-10T06:24:41.651Z,6.53
2018-06-10T06:27:09.743Z,6.43
2018-06-10T06:29:37.923Z,6.37
2018-06-10T06:32:06.026Z,5.57
2018-06-10T06:34:34.111Z,5.83
2018-06-10T06:37:02.225Z,6.07
2018-06-10T06:39:30.308Z,7.13
2018-06-10T06:41:58.428Z,7.23
2018-06-10T06:44:26.525Z,6.87
2018-06-10T06:46:54.660Z,7.20
2018-06-10T06:49:22.778Z,6.90
2018-06-10T06:51:50.859Z,7.53
2018-06-10T06:54:18.966Z,7.80
2018-06-10T06:56:47.047Z,7.60
2018-06-10T06:59:15.143Z,7.90
2018-06-10T07:01:43.224Z,8.97
2018-06-10T07:04:11.344Z,7.20
2018-06-10T07:06:39.406Z,7.30
2018-06-10T07:09:07.776Z,7.87
2018-06-10T07:11:36.139Z,7.70
2018-06-10T07:14:04.332Z,7.90
2018-06-10T07:16:32.412Z,8.87
2018-06-10T07:19:00.511Z,8.10
2018-06-10T07:21:28.596Z,7.90
2018-06-10T07:23:56.693Z,8.33
2018-06-10T07:26:24.776Z,9.03
2018-06-10T07:28:52.876Z,8.60
2018-06-10T07:31:20.947Z,9.20
2018-06-10T07:33:49.037Z,9.00
2018-06-10T07:36:17.112Z,9.30
2018-06-10T07:38:45.213Z,10.10
2018-06-10T07:41:13.306Z,8.40
2018-06-10T07:43:41.416Z,8.40
2018-06-10T07:46:09.496Z,8.50
2018-06-10T07:48:37.640Z,9.23
2018-06-10T07:51:05.833Z,8.93
2018-06-10T07:53:33.932Z,9.63
2018-06-10T07:56:02.037Z,9.57
2018-06-10T07:58:30.129Z,10.60
2018-06-10T08:00:58.233Z,9.87
2018-06-10T08:03:26.316Z,9.70
2018-06-10T08:05:54.412Z,10.30
2018-06-10T08:08:22.484Z,9.80
2018-06-10T08:10:50.595Z,10.57
2018-06-10T08:13:18.680Z,10.90
2018-06-10T08:15:46.788Z,10.57
2018-06-10T08:18:14.875Z,10.27
2018-06-10T08:20:42.971Z,9.87
2018-06-10T08:23:11.052Z,10.10
2018-06-10T08:25:39.158Z,10.37
2018-06-10T08:28:07.276Z,10.10
2018-06-10T08:30:35.371Z,9.57
2018-06-10T08:33:03.469Z,10.43
2018-06-10T08:35:31.579Z,10.03
2018-06-10T08:37:59.665Z,9.80
2018-06-10T08:40:27.764Z,9.80
2018-06-10T08:42:55.844Z,9.87
2018-06-10T08:45:23.960Z,9.83
2018-06-10T08:47:52.045Z,10.70
2018-06-10T08:50:20.175Z,10.73
2018-06-10T08:52:48.268Z,10.20
2018-06-10T08:55:16.346Z,9.90
2018-06-10T08:57:44.440Z,10.23
2018-06-10T09:00:12.529Z,10.20
2018-06-10T09:02:40.684Z,11.90
2018-06-10T09:05:08.747Z,10.50
2018-06-10T09:07:36.843Z,11.20
2018-06-10T09:10:04.930Z,10.60
2018-06-10T09:12:33.032Z,10.17
2018-06-10T09:15:01.123Z,10.67
2018-06-10T09:17:29.229Z,10.50
2018-06-10T09:19:57.316Z,11.40
2018-06-10T09:22:25.449Z,11.67
2018-06-10T09:24:53.597Z,10.53
2018-06-10T09:27:21.688Z,11.47
2018-06-10T09:29:49.793Z,10.27
2018-06-10T09:32:17.886Z,10.40
2018-06-10T09:34:45.972Z,11.30
2018-06-10T09:37:14.099Z,11.50
2018-06-10T09:39:42.245Z,10.93
2018-06-10T09:42:10.372Z,10.30
2018-06-10T09:44:38.468Z,11.17
2018-06-10T09:47:06.588Z,9.90
2018-06-10T09:49:34.684Z,11.60
2018-06-10T09:52:02.774Z,11.37
2018-06-10T09:54:30.869Z,12.93
2018-06-10T09:56:58.951Z,11.67
2018-06-10T09:59:27.048Z,10.43
2018-06-10T10:01:55.136Z,11.73
2018-06-10T10:04:23.244Z,11.63
2018-06-10T10:06:51.328Z,11.33
2018-06-10T10:09:19.436Z,11.87
2018-06-10T10:11:47.532Z,11.33
2018-06-10T10:14:15.654Z,11.40
2018-06-10T10:16:43.745Z,11.90
2018-06-10T10:19:11.852Z,12.13
2018-06-10T10:21:39.936Z,11.30
2018-06-10T10:24:08.037Z,12.30
2018-06-10T10:26:36.124Z,12.40
2018-06-10T10:29:04.235Z,11.93
2018-06-10T10:31:32.316Z,11.50
2018-06-10T10:34:00.415Z,11.00
2018-06-10T10:36:28.512Z,11.40
2018-06-10T10:38:56.615Z,11.13
2018-06-10T10:41:24.704Z,10.77
2018-06-10T10:43:52.816Z,11.03
2018-06-10T10:46:20.925Z,10.13
2018-06-10T10:48:49.040Z,10.90
2018-06-10T10:51:17.147Z,11.73
2018-06-10T10:53:45.237Z,11.67
2018-06-10T10:56:13.797Z,11.33
2018-06-10T10:58:41.887Z,10.93
2018-06-10T11:01:10.001Z,11.73
2018-06-10T11:03:38.408Z,11.07
2018-06-10T11:06:06.520Z,11.10
2018-06-10T11:08:34.614Z,10.80
2018-06-10T11:11:02.711Z,9.97
2018-06-10T11:13:30.808Z,9.90
2018-06-10T11:15:58.915Z,9.20
2018-06-10T11:18:27.004Z,9.60
2018-06-10T11:20:55.112Z,10.03
2018-06-10T11:23:23.204Z,10.07
2018-06-10T11:25:51.312Z,10.30
2018-06-10T11:28:19.403Z,9.80
2018-06-10T11:30:47.519Z,9.27
2018-06-10T11:33:15.596Z,9.50
2018-06-10T11:35:43.695Z,9.53
2018-06-10T11:38:11.788Z,9.67
2018-06-10T11:40:39.892Z,10.60
2018-06-10T11:43:07.988Z,10.00
2018-06-10T11:45:36.112Z,9.53
2018-06-10T11:48:04.371Z,10.10
2018-06-10T11:50:32.491Z,11.03
2018-06-10T11:53:00.595Z,9.97
2018-06-10T11:55:28.693Z,10.30
2018-06-10T11:57:56.809Z,8.90
2018-06-10T12:00:24.900Z,10.00
2018-06-10T12:02:53.006Z,10.37
2018-06-10T12:05:21.167Z,9.30
2018-06-10T12:07:49.287Z,8.60
2018-06-10T12:12:49.632Z,9.50
2018-06-10T12:15:17.725Z,8.60
2018-06-10T12:17:45.832Z,8.10
2018-06-10T12:20:13.920Z,6.53
2018-06-10T12:22:42.118Z,4.87
2018-06-10T12:25:10.141Z,4.80
2018-06-10T12:27:38.236Z,6.40
2018-06-10T12:30:06.332Z,5.50
2018-06-10T12:32:34.431Z,5.60
2018-06-10T12:35:02.525Z,6.50
2018-06-10T12:37:30.629Z,7.37
2018-06-10T12:39:58.720Z,7.13
2018-06-10T12:42:26.824Z,8.10
2018-06-10T12:44:54.915Z,7.97
2018-06-10T12:47:23.029Z,8.53
2018-06-10T12:49:51.132Z,8.60
2018-06-10T12:52:19.245Z,7.53
2018-06-10T12:54:47.349Z,8.50
2018-06-10T12:57:15.441Z,8.20
2018-06-10T12:59:43.527Z,7.60
2018-06-10T13:02:11.637Z,8.53
2018-06-10T13:04:39.740Z,8.20
2018-06-10T13:07:07.819Z,8.83
2018-06-10T13:09:35.920Z,9.50
2018-06-10T13:12:04.027Z,10.30
2018-06-10T13:14:32.128Z,9.97
2018-06-10T13:17:00.213Z,11.40
2018-06-10T13:19:28.323Z,11.43
2018-06-10T13:21:56.408Z,10.97
2018-06-10T13:24:24.499Z,11.20
2018-06-10T13:26:52.584Z,11.13
2018-06-10T13:29:20.690Z,10.30
2018-06-10T13:31:48.776Z,10.40
2018-06-10T13:34:16.877Z,9.73
2018-06-10T13:36:45.030Z,9.60
2018-06-10T13:39:13.184Z,10.30
2018-06-10T13:41:41.268Z,10.33
2018-06-10T13:44:09.397Z,11.40
2018-06-10T13:46:37.492Z,11.40
2018-06-10T13:49:05.612Z,9.73
2018-06-10T13:51:33.721Z,10.50
2018-06-10T13:54:01.823Z,10.20
2018-06-10T13:56:29.934Z,10.43
2018-06-10T13:58:58.021Z,9.20
2018-06-10T14:01:26.119Z,9.60
2018-06-10T14:03:54.206Z,9.50
2018-06-10T14:06:22.317Z,7.50
2018-06-10T14:08:50.403Z,9.60
2018-06-10T14:11:18.495Z,9.60
2018-06-10T14:13:46.580Z,9.90
2018-06-10T14:16:14.671Z,7.93
2018-06-10T14:18:42.842Z,7.93
2018-06-10T14:21:10.947Z,7.77
2018-06-10T14:23:39.028Z,7.53
2018-06-10T14:26:07.136Z,7.13
2018-06-10T14:28:35.292Z,7.40
2018-06-10T14:31:03.455Z,8.57
2018-06-10T14:33:31.932Z,10.10
2018-06-10T14:36:00.056Z,10.00
2018-06-10T14:38:28.136Z,9.50
2018-06-10T14:40:56.231Z,8.30
2018-06-10T14:43:24.310Z,9.23
2018-06-10T14:45:52.415Z,9.37
2018-06-10T14:48:20.491Z,9.40
2018-06-10T14:50:48.576Z,7.80
2018-06-10T14:53:16.691Z,8.20
2018-06-10T14:55:44.773Z,7.50
2018-06-10T14:58:12.872Z,7.63
2018-06-10T15:00:40.977Z,7.30
2018-06-10T15:03:09.079Z,7.60
2018-06-10T15:05:37.172Z,6.57
2018-06-10T15:08:05.344Z,6.70
2018-06-10T15:10:33.429Z,6.87
2018-06-10T15:13:01.529Z,6.10
2018-06-10T15:15:29.716Z,5.53
2018-06-10T15:17:57.808Z,5.90
2018-06-10T15:20:26.301Z,6.30
2018-06-10T15:22:54.391Z,6.03
2018-06-10T15:25:22.488Z,5.90
2018-06-10T15:27:50.590Z,6.53
2018-06-10T15:30:18.671Z,5.67
2018-06-10T15:32:46.767Z,7.13
2018-06-10T15:35:14.839Z,6.50
2018-06-10T15:37:42.951Z,6.43
2018-06-10T15:40:11.032Z,6.87
2018-06-10T15:42:39.131Z,6.10
2018-06-10T15:45:07.204Z,6.43
2018-06-10T15:47:35.376Z,7.20
2018-06-10T15:50:03.532Z,5.70
2018-06-10T15:52:31.657Z,6.20
2018-06-10T15:55:00.175Z,7.13
2018-06-10T15:57:28.251Z,6.37
2018-06-10T15:59:56.371Z,6.20
2018-06-10T16:02:24.461Z,5.83
2018-06-10T16:04:52.589Z,5.80
2018-06-10T16:07:20.671Z,5.27
2018-06-10T16:09:48.768Z,5.80
2018-06-10T16:14:42.327Z,6.50
2018-06-10T16:17:10.400Z,6.23
2018-06-10T16:19:38.501Z,5.70
2018-06-10T16:22:06.617Z,5.60
2018-06-10T16:24:34.721Z,5.50
2018-06-10T16:27:02.808Z,5.03
2018-06-10T16:29:30.908Z,6.37
2018-06-10T16:31:58.988Z,5.90
2018-06-10T16:34:27.085Z,5.17
2018-06-10T16:36:55.193Z,5.40
2018-06-10T16:39:23.314Z,5.33
2018-06-10T16:41:51.409Z,5.90
2018-06-10T16:44:19.513Z,5.40
2018-06-10T16:46:47.599Z,5.53
2018-06-10T16:49:15.721Z,5.70
2018-06-10T16:51:43.840Z,5.70
2018-06-10T16:54:11.916Z,5.40
2018-06-10T16:56:40.028Z,5.87
2018-06-10T16:59:08.125Z,5.97
2018-06-10T17:01:36.237Z,6.20
2018-06-10T17:04:04.336Z,5.97
2018-06-10T17:06:32.444Z,5.80
2018-06-10T17:09:00.524Z,6.20
2018-06-10T17:11:28.635Z,5.83
2018-06-10T17:13:57.036Z,6.17
2018-06-10T17:16:25.140Z,6.10
2018-06-10T17:18:53.238Z,6.30
2018-06-10T17:21:21.344Z,6.40
2018-06-10T17:23:49.440Z,6.50
2018-06-10T17:26:17.546Z,6.03
2018-06-10T17:28:45.644Z,6.10
2018-06-10T17:31:13.741Z,6.03
2018-06-10T17:33:41.816Z,5.73
2018-06-10T17:36:09.928Z,5.70
2018-06-10T17:38:38.107Z,6.00
2018-06-10T17:41:06.220Z,6.07
2018-06-10T17:43:34.313Z,5.73
2018-06-10T17:46:03.569Z,5.70
2018-06-10T17:48:31.664Z,5.50
2018-06-10T17:50:59.795Z,6.50
2018-06-10T17:53:27.916Z,5.63
2018-06-10T17:55:56.017Z,5.43
2018-06-10T17:58:24.116Z,6.00
2018-06-10T18:00:52.286Z,6.20
2018-06-10T18:03:20.396Z,5.40
2018-06-10T18:05:48.480Z,5.30
2018-06-10T18:08:16.611Z,5.93
2018-06-10T18:10:44.687Z,6.10
2018-06-10T18:13:12.792Z,6.40
2018-06-10T18:15:40.893Z,6.23
2018-06-10T18:18:09.015Z,5.80
2018-06-10T18:20:37.101Z,6.50
2018-06-10T18:23:05.215Z,6.00
2018-06-10T18:25:33.304Z,6.90
2018-06-10T18:28:01.417Z,6.47
2018-06-10T18:30:29.503Z,6.73
2018-06-10T18:32:57.608Z,5.90
2018-06-10T18:35:25.887Z,6.10
2018-06-10T18:37:53.999Z,6.57
2018-06-10T18:40:22.143Z,6.60
2018-06-10T18:42:50.244Z,6.20
2018-06-10T18:45:18.325Z,7.07
2018-06-10T18:47:46.419Z,6.40
2018-06-10T18:50:14.504Z,7.90
2018-06-10T18:52:42.612Z,6.83
2018-06-10T18:55:10.692Z,6.47
2018-06-10T18:57:38.776Z,7.40
2018-06-10T19:00:06.884Z,6.67
2018-06-10T19:02:41.544Z,7.73
2018-06-10T19:05:09.639Z,6.50
2018-06-10T19:07:37.711Z,7.07
2018-06-10T19:10:05.804Z,6.47
2018-06-10T19:12:33.882Z,6.93
2018-06-10T19:15:01.990Z,6.73
2018-06-10T19:17:30.072Z,7.13
2018-06-10T19:19:58.172Z,6.93
2018-06-10T19:22:26.248Z,6.37
2018-06-10T19:24:54.353Z,7.13
2018-06-10T19:27:22.436Z,7.33
2018-06-10T19:29:50.534Z,7.03
2018-06-10T19:32:18.621Z,8.00
2018-06-10T19:34:46.720Z,7.90
2018-06-10T19:37:14.835Z,7.43
2018-06-10T19:39:42.929Z,8.33
2018-06-10T19:42:11.012Z,7.90
2018-06-10T19:44:39.113Z,8.00
2018-06-10T19:47:07.193Z,7.47
2018-06-10T19:49:35.372Z,8.17
2018-06-10T19:52:03.542Z,7.43
2018-06-10T19:54:31.620Z,7.50
2018-06-10T19:56:59.732Z,7.87
2018-06-10T19:59:27.924Z,7.87
2018-06-10T20:01:56.044Z,8.07
2018-06-10T20:04:24.128Z,8.07
2018-06-10T20:06:52.228Z,7.97
2018-06-10T20:09:20.326Z,8.77
2018-06-10T20:11:48.424Z,8.70
2018-06-10T20:14:16.514Z,7.87
2018-06-10T20:16:44.603Z,7.20
2018-06-10T20:19:12.676Z,8.10
2018-06-10T20:21:40.821Z,7.50
2018-06-10T20:24:09.098Z,7.90
2018-06-10T20:26:37.204Z,8.07
2018-06-10T20:29:05.283Z,7.73
2018-06-10T20:31:33.392Z,7.47
2018-06-10T20:34:01.761Z,8.33
2018-06-10T20:36:29.872Z,7.93
2018-06-10T20:38:57.956Z,8.43
2018-06-10T20:41:26.072Z,8.30
2018-06-10T20:43:54.165Z,8.17
2018-06-10T20:46:22.277Z,8.20
2018-06-10T20:48:50.452Z,8.10
2018-06-10T20:51:18.686Z,7.87
2018-06-10T20:53:46.768Z,8.00
2018-06-10T20:56:14.869Z,8.00
2018-06-10T20:58:42.951Z,8.63
2018-06-10T21:01:11.063Z,7.50
2018-06-10T21:03:39.168Z,8.20
2018-06-10T21:06:07.252Z,8.00
2018-06-10T21:08:35.360Z,7.87
2018-06-10T21:11:03.470Z,8.40
2018-06-10T21:13:31.710Z,9.17
2018-06-10T21:15:59.939Z,8.07
2018-06-10T21:18:28.133Z,9.70
2018-06-10T21:20:56.368Z,8.50
2018-06-10T21:23:24.721Z,8.00
2018-06-10T21:25:52.932Z,7.90
2018-06-10T21:28:21.232Z,8.03
2018-06-10T21:30:49.319Z,8.20
2018-06-10T21:33:17.424Z,8.60
2018-06-10T21:35:45.512Z,8.77
2018-06-10T21:38:13.611Z,8.37
2018-06-10T21:40:41.702Z,8.40
2018-06-10T21:43:09.826Z,9.57
2018-06-10T21:45:37.918Z,8.33
2018-06-10T21:48:06.028Z,9.20
2018-06-10T21:50:34.128Z,8.30
2018-06-10T21:53:02.218Z,9.10
2018-06-10T21:55:30.312Z,8.53
2018-06-10T21:57:58.400Z,8.47
2018-06-10T22:00:27.175Z,7.77
2018-06-10T22:02:55.256Z,8.87
2018-06-10T22:05:23.354Z,7.60
2018-06-10T22:07:51.427Z,9.23
2018-06-10T22:10:19.532Z,9.13
2018-06-10T22:12:47.618Z,9.40
2018-06-10T22:15:15.724Z,9.40
2018-06-10T22:17:43.791Z,8.43
2018-06-10T22:20:11.892Z,8.60
2018-06-10T22:22:39.971Z,9.40
2018-06-10T22:25:08.084Z,8.53
2018-06-10T22:27:36.166Z,7.97
2018-06-10T22:30:04.412Z,8.50
2018-06-10T22:32:32.493Z,8.13
2018-06-10T22:35:00.588Z,9.07
2018-06-10T22:37:28.668Z,9.00
2018-06-10T22:39:56.766Z,8.90
2018-06-10T22:42:24.854Z,9.20
2018-06-10T22:44:52.967Z,8.43
2018-06-10T22:47:21.049Z,9.67
2018-06-10T22:49:49.147Z,8.57
2018-06-10T22:52:17.241Z,9.80
2018-06-10T22:54:47.076Z,9.50
2018-06-10T22:57:15.176Z,8.67
2018-06-10T22:59:43.389Z,9.07
2018-06-10T23:02:11.499Z,8.90
2018-06-10T23:04:39.572Z,7.90
2018-06-10T23:07:07.708Z,9.30
2018-06-10T23:09:35.777Z,9.93
2018-06-10T23:12:03.873Z,9.50
2018-06-10T23:14:31.968Z,9.03
2018-06-10T23:17:00.069Z,9.47
2018-06-10T23:19:28.159Z,9.00
2018-06-10T23:21:56.252Z,9.40
2018-06-10T23:24:24.335Z,9.33
2018-06-10T23:26:52.437Z,9.43
2018-06-10T23:29:20.515Z,9.13
2018-06-10T23:31:48.612Z,9.70
2018-06-10T23:34:16.704Z,9.47
2018-06-10T23:36:44.798Z,9.77
2018-06-10T23:39:12.876Z,10.33
2018-06-10T23:41:40.980Z,8.90
2018-06-10T23:44:09.069Z,9.70
2018-06-10T23:46:37.173Z,9.73
2018-06-10T23:49:05.248Z,9.90
2018-06-10T23:51:33.360Z,10.30
2018-06-10T23:54:01.495Z,10.13
2018-06-10T23:56:29.589Z,11.17
2018-06-10T23:58:57.703Z,9.77
